createdAt,value
2023-03-26T00:00:26.649Z,11.63
2023-03-26T00:05:29.445Z,11.58
2023-03-26T00:10:32.082Z,11.50
2023-03-26T00:15:37.930Z,11.44
2023-03-26T00:20:41.827Z,11.37
2023-03-26T00:25:46.256Z,11.28
2023-03-26T00:30:51.337Z,11.22
2023-03-26T00:35:56.015Z,11.09
2023-03-26T00:41:06.297Z,10.99
2023-03-26T00:46:11.598Z,10.96
2023-03-26T00:51:16.375Z,10.97
2023-03-26T00:56:19.573Z,11.01
2023-03-26T01:01:29.133Z,10.99
2023-03-26T01:06:36.660Z,10.83
2023-03-26T01:11:39.519Z,10.76
2023-03-26T01:16:47.511Z,10.67
2023-03-26T01:21:50.148Z,10.59
2023-03-26T01:26:53.077Z,10.51
2023-03-26T01:32:14.369Z,10.49
2023-03-26T01:37:30.752Z,10.42
2023-03-26T01:43:05.658Z,10.38
2023-03-26T01:48:08.417Z,10.32
2023-03-26T01:53:29.814Z,10.33
2023-03-26T01:58:40.053Z,10.22
2023-03-26T02:03:59.493Z,10.09
2023-03-26T02:09:11.269Z,10.14
2023-03-26T02:14:15.128Z,10.17
2023-03-26T02:19:22.343Z,10.19
2023-03-26T02:24:28.066Z,10.22
2023-03-26T02:29:37.989Z,10.30
2023-03-26T02:34:42.171Z,10.35
2023-03-26T02:39:45.624Z,10.39
2023-03-26T02:45:01.785Z,10.34
2023-03-26T02:50:22.590Z,10.18
2023-03-26T02:55:45.579Z,10.04
2023-03-26T03:00:51.041Z,9.92
2023-03-26T03:06:22.269Z,9.88
2023-03-26T03:11:27.646Z,9.86
2023-03-26T03:16:30.954Z,9.76
2023-03-26T03:21:38.643Z,9.69
2023-03-26T03:26:42.559Z,9.78
2023-03-26T03:31:57.409Z,9.98
2023-03-26T03:37:24.861Z,10.23
2023-03-26T03:42:30.004Z,10.49
2023-03-26T03:47:36.593Z,10.60
2023-03-26T03:52:59.338Z,10.78
2023-03-26T03:58:02.427Z,10.81
2023-03-26T04:03:06.685Z,10.92
2023-03-26T04:08:10.352Z,10.98
2023-03-26T04:13:26.958Z,11.13
2023-03-26T04:18:53.713Z,11.09
2023-03-26T04:23:57.140Z,11.06
2023-03-26T04:29:24.673Z,11.08
2023-03-26T04:34:30.209Z,11.25
2023-03-26T04:39:42.131Z,11.42
2023-03-26T04:45:04.943Z,11.57
2023-03-26T04:50:09.576Z,11.74
2023-03-26T04:55:36.907Z,11.90
2023-03-26T05:00:47.897Z,12.12
2023-03-26T05:05:51.830Z,12.42
2023-03-26T05:10:57.592Z,12.71
2023-03-26T05:16:07.510Z,13.00
2023-03-26T05:21:16.242Z,13.27
2023-03-26T05:26:20.264Z,13.63
2023-03-26T05:31:23.386Z,13.92
2023-03-26T05:36:30.245Z,14.18
2023-03-26T05:41:53.205Z,14.33
2023-03-26T05:46:58.112Z,14.68
2023-03-26T05:52:02.759Z,15.14
2023-03-26T05:57:13.885Z,15.61
2023-03-26T06:02:35.313Z,16.11
2023-03-26T06:07:57.885Z,16.70
2023-03-26T06:13:07.063Z,17.12
2023-03-26T06:18:13.258Z,17.32
2023-03-26T06:23:36.248Z,17.60
2023-03-26T06:28:38.864Z,17.92
2023-03-26T06:34:07.526Z,18.19
2023-03-26T06:39:10.733Z,18.40
2023-03-26T06:44:21.610Z,18.68
2023-03-26T06:49:44.243Z,18.94
2023-03-26T06:55:08.900Z,19.11
2023-03-26T07:00:33.862Z,19.37
2023-03-26T07:05:54.917Z,19.73
2023-03-26T07:11:29.682Z,20.10
2023-03-26T07:16:51.774Z,20.28
2023-03-26T07:22:21.804Z,20.50
2023-03-26T07:27:43.438Z,20.80
2023-03-26T07:32:46.770Z,21.38
2023-03-26T07:38:27.639Z,21.62
2023-03-26T07:43:54.434Z,21.77
2023-03-26T07:49:33.022Z,21.77
2023-03-26T07:54:59.806Z,21.42
2023-03-26T08:00:42.424Z,21.26
2023-03-26T08:05:53.950Z,21.51
2023-03-26T08:11:54.373Z,21.54
2023-03-26T08:17:06.156Z,21.67
2023-03-26T08:22:15.798Z,21.73
2023-03-26T08:27:40.554Z,21.69
2023-03-26T08:32:49.557Z,21.76
2023-03-26T08:37:52.397Z,21.83
2023-03-26T08:43:24.834Z,21.99
2023-03-26T08:48:52.109Z,22.03
2023-03-26T08:54:12.672Z,22.01
2023-03-26T08:59:33.040Z,22.10
2023-03-26T09:05:13.214Z,22.07
2023-03-26T09:10:41.527Z,22.22
2023-03-26T09:16:05.620Z,22.27
2023-03-26T09:21:14.052Z,22.10
2023-03-26T09:26:59.610Z,22.14
2023-03-26T09:32:31.790Z,22.14
2023-03-26T09:37:56.794Z,22.31
2023-03-26T09:43:34.612Z,22.84
2023-03-26T09:48:46.287Z,23.40
2023-03-26T09:54:07.017Z,23.60
2023-03-26T09:59:30.443Z,23.90
2023-03-26T10:05:05.303Z,23.81
2023-03-26T10:10:35.721Z,23.36
2023-03-26T10:16:05.904Z,22.90
2023-03-26T10:21:24.621Z,22.82
2023-03-26T10:26:36.841Z,22.57
2023-03-26T10:31:47.903Z,22.35
2023-03-26T10:37:25.350Z,22.34
2023-03-26T10:42:46.087Z,22.24
2023-03-26T10:48:11.627Z,22.10
2023-03-26T10:53:28.219Z,22.26
2023-03-26T10:58:48.804Z,22.58
2023-03-26T11:04:16.609Z,22.59
2023-03-26T11:09:18.961Z,22.56
2023-03-26T11:14:34.220Z,22.54
2023-03-26T11:19:41.957Z,22.58
2023-03-26T11:24:56.191Z,22.67
2023-03-26T11:30:17.407Z,23.05
2023-03-26T11:35:40.590Z,23.44
2023-03-26T11:40:51.209Z,24.24
2023-03-26T11:46:20.998Z,23.97
2023-03-26T11:51:34.424Z,23.52
2023-03-26T11:57:04.541Z,23.40
2023-03-26T12:02:14.080Z,23.05
2023-03-26T12:07:32.187Z,22.80
2023-03-26T12:12:41.166Z,22.54
2023-03-26T12:17:44.060Z,22.40
2023-03-26T12:22:48.022Z,22.31
2023-03-26T12:27:53.273Z,22.29
2023-03-26T12:33:04.054Z,22.11
2023-03-26T12:38:35.991Z,22.01
2023-03-26T12:44:55.269Z,21.84
2023-03-26T12:49:15.925Z,21.67
2023-03-26T12:54:36.763Z,21.57
2023-03-26T13:00:02.316Z,21.34
2023-03-26T13:05:33.246Z,21.32
2023-03-26T13:10:42.214Z,21.29
2023-03-26T13:15:52.787Z,21.18
2023-03-26T13:21:38.497Z,21.18
2023-03-26T13:26:54.879Z,21.01
2023-03-26T13:32:25.225Z,20.89
2023-03-26T13:37:42.430Z,20.67
2023-03-26T13:43:23.617Z,20.66
2023-03-26T13:48:32.674Z,20.64
2023-03-26T13:54:04.944Z,20.58
2023-03-26T13:59:23.016Z,20.50
2023-03-26T14:04:37.200Z,20.33
2023-03-26T14:10:11.634Z,20.16
2023-03-26T14:15:36.752Z,20.04
2023-03-26T14:21:00.817Z,19.87
2023-03-26T14:26:38.364Z,19.78
2023-03-26T14:32:01.764Z,19.61
2023-03-26T14:37:35.187Z,19.54
2023-03-26T14:42:43.786Z,19.43
2023-03-26T14:48:20.244Z,19.35
2023-03-26T14:53:33.722Z,19.18
2023-03-26T14:59:07.829Z,19.05
2023-03-26T15:04:34.759Z,18.88
2023-03-26T15:10:01.537Z,18.73
2023-03-26T15:15:45.720Z,18.61
2023-03-26T15:21:30.892Z,18.54
2023-03-26T15:26:41.981Z,18.37
2023-03-26T15:31:47.788Z,18.20
2023-03-26T15:37:12.197Z,18.05
2023-03-26T15:42:17.816Z,17.97
2023-03-26T15:47:41.456Z,17.88
2023-03-26T15:53:09.912Z,17.75
2023-03-26T15:58:53.747Z,17.62
2023-03-26T16:04:30.252Z,17.48
2023-03-26T16:09:47.959Z,17.25
2023-03-26T16:15:21.518Z,17.08
2023-03-26T16:20:33.224Z,17.10
2023-03-26T16:26:27.882Z,16.96
2023-03-26T16:31:38.692Z,16.73
2023-03-26T16:36:51.829Z,16.38
2023-03-26T16:42:23.708Z,16.08
2023-03-26T16:47:38.956Z,15.91
2023-03-26T16:53:02.902Z,15.82
2023-03-26T16:58:22.119Z,15.74
2023-03-26T17:03:52.255Z,15.65
2023-03-26T17:09:07.510Z,15.51
2023-03-26T17:14:11.054Z,15.45
2023-03-26T17:19:42.193Z,15.45
2023-03-26T17:24:54.512Z,15.49
2023-03-26T17:30:54.049Z,15.52
2023-03-26T17:36:12.064Z,15.50
2023-03-26T17:41:35.468Z,15.43
2023-03-26T17:46:48.478Z,15.26
2023-03-26T17:51:54.462Z,15.13
2023-03-26T17:57:04.323Z,15.05
2023-03-26T18:02:16.257Z,15.10
2023-03-26T18:07:44.303Z,15.14
2023-03-26T18:13:05.252Z,15.21
2023-03-26T18:18:20.082Z,15.20
2023-03-26T18:23:47.600Z,15.25
2023-03-26T18:29:08.560Z,15.31
2023-03-26T18:34:20.362Z,15.40
2023-03-26T18:39:22.828Z,15.44
2023-03-26T18:44:25.645Z,15.45
2023-03-26T18:49:30.040Z,15.37
2023-03-26T18:54:42.912Z,15.22
2023-03-26T18:59:46.036Z,15.18
2023-03-26T19:04:51.152Z,15.07
2023-03-26T19:09:56.694Z,15.04
2023-03-26T19:15:09.835Z,15.02
2023-03-26T19:20:22.280Z,14.94
2023-03-26T19:25:55.107Z,14.97
2023-03-26T19:31:26.182Z,15.02
2023-03-26T19:36:34.906Z,14.94
2023-03-26T19:41:42.386Z,14.94
2023-03-26T19:46:53.887Z,14.90
2023-03-26T19:52:15.357Z,14.79
2023-03-26T19:57:18.286Z,14.74
2023-03-26T20:02:20.856Z,14.73
2023-03-26T20:07:35.318Z,14.67
2023-03-26T20:12:38.908Z,14.58
2023-03-26T20:17:43.117Z,14.39
2023-03-26T20:22:47.258Z,14.18
2023-03-26T20:27:49.926Z,14.01
2023-03-26T20:33:12.589Z,13.81
2023-03-26T20:38:17.077Z,13.59
2023-03-26T20:43:24.424Z,13.39
2023-03-26T20:48:26.951Z,13.30
2023-03-26T20:53:30.721Z,13.17
2023-03-26T20:58:33.443Z,12.93
2023-03-26T21:03:54.301Z,12.87
2023-03-26T21:08:57.143Z,12.69
2023-03-26T21:14:10.377Z,12.53
2023-03-26T21:19:16.058Z,12.51
2023-03-26T21:24:54.449Z,12.33
2023-03-26T21:29:58.395Z,12.15
2023-03-26T21:35:01.405Z,12.12
2023-03-26T21:40:23.808Z,12.08
2023-03-26T21:45:26.956Z,12.06
2023-03-26T21:50:30.084Z,12.10
2023-03-26T21:55:51.826Z,12.21
2023-03-26T22:01:13.098Z,12.35
2023-03-26T22:06:32.475Z,12.37
2023-03-26T22:11:35.020Z,12.47
2023-03-26T22:16:37.888Z,12.54
2023-03-26T22:21:40.472Z,12.49
2023-03-26T22:26:43.182Z,12.54
2023-03-26T22:31:45.893Z,12.37
2023-03-26T22:36:48.521Z,12.24
2023-03-26T22:41:51.092Z,12.18
2023-03-26T22:46:54.751Z,12.23
2023-03-26T22:51:57.357Z,12.23
2023-03-26T22:57:00.370Z,12.10
2023-03-26T23:02:03.073Z,11.93
2023-03-26T23:07:05.923Z,11.87
2023-03-26T23:12:08.477Z,11.71
2023-03-26T23:17:14.805Z,11.56
2023-03-26T23:22:20.355Z,11.55
2023-03-26T23:27:23.170Z,11.41
2023-03-26T23:32:25.902Z,11.21
2023-03-26T23:37:29.731Z,11.08
2023-03-26T23:42:50.565Z,10.94
2023-03-26T23:47:53.172Z,10.86
2023-03-26T23:52:59.100Z,10.84
2023-03-26T23:58:02.818Z,10.72
